Time;durP1;ratioP1;P1;durP2;ratioP2;P2;SDS_P1;SDS_P2;PMS_P1;PMS_P2;Temp;Humidity;BMP_temperature;BMP_pressure;BME280_temperature;BME280_humidity;BME280_pressure;Samples;Min_cycle;Max_cycle;Signal;HPM_P1;HPM_P2
2021/08/27 00:01:10;;;;;;;1.60;1.10;;;;;;;13.48;100.00;100432.41;5096818;28;20972;-78
2021/08/27 00:03:36;;;;;;;0.70;0.70;;;;;;;13.52;100.00;100430.66;5095237;28;20870;-79
2021/08/27 00:06:03;;;;;;;3.00;1.00;;;;;;;13.54;100.00;100422.94;5096044;28;20948;-78
2021/08/27 00:08:29;;;;;;;1.83;0.90;;;;;;;13.55;100.00;100426.50;5096652;28;20440;-78
2021/08/27 00:10:57;;;;;;;1.17;1.07;;;;;;;13.52;100.00;100425.19;5096120;28;20807;-78
2021/08/27 00:13:24;;;;;;;0.60;0.50;;;;;;;13.54;100.00;100427.59;5095281;28;20464;-78
2021/08/27 00:15:50;;;;;;;1.63;0.83;;;;;;;13.54;100.00;100433.84;5096600;28;20456;-78
2021/08/27 00:18:17;;;;;;;0.97;0.80;;;;;;;13.46;100.00;100428.41;5096225;28;20445;-78
2021/08/27 00:20:43;;;;;;;1.27;0.80;;;;;;;13.45;100.00;100414.00;5095673;28;20798;-78
2021/08/27 00:23:10;;;;;;;4.57;1.00;;;;;;;13.46;100.00;100420.25;5095454;28;21264;-78
2021/08/27 00:25:36;;;;;;;1.73;0.70;;;;;;;13.43;100.00;100421.72;5095968;28;20444;-78
2021/08/27 00:28:05;;;;;;;1.80;0.90;;;;;;;13.44;100.00;100417.84;5096412;28;20450;-78
2021/08/27 00:30:32;;;;;;;2.57;1.30;;;;;;;13.42;100.00;100422.03;5096102;28;20452;-78
2021/08/27 00:32:58;;;;;;;1.17;1.03;;;;;;;13.44;100.00;100417.06;5095121;28;20448;-76
2021/08/27 00:35:25;;;;;;;1.53;1.37;;;;;;;13.43;100.00;100416.28;5096100;28;20472;-78
2021/08/27 00:37:52;;;;;;;0.80;0.70;;;;;;;13.37;100.00;100415.66;5095822;28;20455;-78
2021/08/27 00:40:18;;;;;;;0.90;0.80;;;;;;;13.38;100.00;100413.72;5095552;28;20945;-78
2021/08/27 00:42:44;;;;;;;0.97;0.80;;;;;;;13.37;100.00;100410.22;5094974;28;20507;-77
2021/08/27 00:45:12;;;;;;;7.20;0.80;;;;;;;13.40;100.00;100411.47;5095546;28;20444;-78
2021/08/27 00:47:39;;;;;;;2.57;1.10;;;;;;;13.38;100.00;100403.63;5096019;28;20440;-78
2021/08/27 00:50:07;;;;;;;1.13;0.67;;;;;;;13.40;100.00;100400.59;5096118;28;20440;-78
2021/08/27 00:52:33;;;;;;;1.53;1.37;;;;;;;13.41;100.00;100404.09;5095261;28;20452;-78
2021/08/27 00:55:00;;;;;;;1.30;0.93;;;;;;;13.36;100.00;100411.31;5095647;28;20813;-78
2021/08/27 00:57:26;;;;;;;0.90;0.90;;;;;;;13.34;100.00;100407.34;5096678;28;20448;-78
2021/08/27 00:59:53;;;;;;;0.80;0.77;;;;;;;13.32;100.00;100399.47;5096218;28;20964;-78
2021/08/27 01:02:20;;;;;;;0.83;0.77;;;;;;;13.32;100.00;100404.91;5095498;28;20484;-78
2021/08/27 01:04:50;;;;;;;1.13;0.93;;;;;;;13.31;100.00;100400.59;5095090;28;20436;-77
2021/08/27 01:07:20;;;;;;;1.93;1.20;;;;;;;13.32;100.00;100404.13;5095522;28;20524;-77
2021/08/27 01:09:53;;;;;;;1.13;1.03;;;;;;;13.26;100.00;100398.06;5095860;28;20436;-78
2021/08/27 01:12:27;;;;;;;1.73;1.10;;;;;;;13.22;100.00;100405.25;5095528;28;20949;-78
2021/08/27 01:14:57;;;;;;;1.03;0.87;;;;;;;13.18;100.00;100398.84;5095029;28;20425;-78
2021/08/27 01:17:34;;;;;;;0.70;0.70;;;;;;;13.19;100.00;100395.00;5095695;28;20429;-77
2021/08/27 01:20:14;;;;;;;1.73;1.47;;;;;;;13.16;100.00;100394.84;5095964;28;20778;-78
2021/08/27 01:23:01;;;;;;;1.70;0.93;;;;;;;13.16;100.00;100400.31;5095366;28;20488;-78
2021/08/27 01:25:31;;;;;;;1.10;0.90;;;;;;;13.18;100.00;100398.84;5096417;28;20507;-78
2021/08/27 01:27:59;;;;;;;1.37;1.27;;;;;;;13.19;100.00;100402.34;5097689;28;20447;-78
2021/08/27 01:30:34;;;;;;;1.00;0.83;;;;;;;13.21;100.00;100395.47;5096841;28;20440;-78
2021/08/27 01:33:07;;;;;;;1.03;0.93;;;;;;;13.21;100.00;100405.56;5094932;28;20472;-78
2021/08/27 01:35:36;;;;;;;0.70;0.70;;;;;;;13.23;100.00;100401.41;5093992;28;20425;-78
2021/08/27 01:38:06;;;;;;;1.80;1.03;;;;;;;13.26;100.00;100406.22;5094641;28;20463;-78
2021/08/27 01:40:34;;;;;;;1.53;0.87;;;;;;;13.27;100.00;100404.28;5094796;28;20436;-78
2021/08/27 01:43:03;;;;;;;1.60;1.10;;;;;;;13.27;100.00;100401.56;5093870;28;21011;-78
2021/08/27 01:45:30;;;;;;;1.33;0.87;;;;;;;13.25;100.00;100403.84;5093850;28;20441;-77
2021/08/27 01:47:59;;;;;;;1.37;1.17;;;;;;;13.22;100.00;100401.72;5094550;28;20455;-77
2021/08/27 01:50:26;;;;;;;1.40;0.73;;;;;;;13.26;100.00;100398.06;5094365;28;20452;-78
2021/08/27 01:52:55;;;;;;;1.07;0.90;;;;;;;13.30;100.00;100399.00;5093656;28;20542;-78
2021/08/27 01:55:23;;;;;;;1.07;0.97;;;;;;;13.28;100.00;100393.13;5093614;28;20448;-77
2021/08/27 01:57:50;;;;;;;1.27;0.90;;;;;;;13.31;100.00;100397.88;5094225;28;20443;-77
2021/08/27 02:00:18;;;;;;;2.30;1.10;;;;;;;13.34;100.00;100399.97;5094107;28;20440;-78
2021/08/27 02:02:45;;;;;;;1.23;1.00;;;;;;;13.36;100.00;100386.81;5093692;28;20484;-78
2021/08/27 02:05:13;;;;;;;0.60;0.40;;;;;;;13.43;100.00;100396.44;5096877;28;20443;-78
2021/08/27 02:07:40;;;;;;;1.27;0.70;;;;;;;13.47;100.00;100391.94;5098351;28;20805;-77
2021/08/27 02:10:09;;;;;;;3.13;1.00;;;;;;;13.44;100.00;100395.28;5097452;28;20428;-77
2021/08/27 02:12:36;;;;;;;1.47;0.90;;;;;;;13.43;100.00;100389.06;5096916;28;20452;-76
2021/08/27 02:15:03;;;;;;;1.10;1.00;;;;;;;13.46;100.00;100390.31;5096814;28;20444;-76
2021/08/27 02:17:31;;;;;;;1.07;0.97;;;;;;;13.49;100.00;100382.31;5097109;28;20447;-77
2021/08/27 02:19:58;;;;;;;1.00;0.83;;;;;;;13.52;100.00;100391.75;5097514;28;20558;-77
2021/08/27 02:22:28;;;;;;;0.87;0.83;;;;;;;13.50;100.00;100383.09;5096830;28;20480;-77
2021/08/27 02:24:59;;;;;;;1.30;0.93;;;;;;;13.46;100.00;100377.53;5096759;28;20465;-77
2021/08/27 02:27:29;;;;;;;1.17;0.70;;;;;;;13.44;100.00;100377.03;5097439;28;20428;-77
2021/08/27 02:29:57;;;;;;;0.90;0.80;;;;;;;13.46;100.00;100376.72;5097678;28;20488;-77
2021/08/27 02:32:24;;;;;;;0.90;0.80;;;;;;;13.47;100.00;100370.16;5085952;28;20507;-77
2021/08/27 02:34:52;;;;;;;0.70;0.50;;;;;;;13.50;100.00;100377.66;5076581;28;20437;-77
2021/08/27 02:37:22;;;;;;;1.07;0.73;;;;;;;13.49;100.00;100374.16;5077195;28;20433;-78
2021/08/27 02:39:49;;;;;;;0.80;0.70;;;;;;;13.48;100.00;100379.91;5077987;28;20516;-77
2021/08/27 02:42:15;;;;;;;0.50;0.50;;;;;;;13.51;100.00;100371.91;5077749;28;20468;-77
2021/08/27 02:44:43;;;;;;;2.57;0.93;;;;;;;13.54;100.00;100373.97;5077019;28;20861;-77
2021/08/27 02:47:10;;;;;;;0.70;0.70;;;;;;;13.55;100.00;100372.06;5077249;28;20440;-78
2021/08/27 02:49:37;;;;;;;1.00;0.83;;;;;;;13.59;100.00;100367.53;5077951;28;20464;-78
2021/08/27 02:52:10;;;;;;;0.90;0.70;;;;;;;13.60;100.00;100366.44;5086334;28;20448;-79
2021/08/27 02:54:56;;;;;;;1.33;1.00;;;;;;;13.61;100.00;100362.59;5098354;28;20440;-79
2021/08/27 02:57:25;;;;;;;0.77;0.60;;;;;;;13.62;100.00;100358.72;5097455;28;20428;-79
2021/08/27 02:59:59;;;;;;;9.73;1.13;;;;;;;13.61;100.00;100357.94;5098718;28;20480;-79
2021/08/27 03:02:26;;;;;;;0.50;0.40;;;;;;;13.63;100.00;100352.97;5097779;28;20464;-78
2021/08/27 03:05:01;;;;;;;0.90;0.60;;;;;;;13.61;100.00;100355.22;5097232;28;20488;-78
2021/08/27 03:07:30;;;;;;;0.70;0.53;;;;;;;13.61;100.00;100348.97;5097991;28;20447;-78
2021/08/27 03:10:02;;;;;;;0.80;0.60;;;;;;;13.60;100.00;100348.19;5097956;28;20429;-78
2021/08/27 03:12:34;;;;;;;1.23;0.50;;;;;;;13.60;100.00;100350.91;5098052;28;20475;-78
2021/08/27 03:15:02;;;;;;;1.20;1.10;;;;;;;13.63;100.00;100358.41;5095755;28;20894;-77
2021/08/27 03:17:35;;;;;;;1.30;0.80;;;;;;;13.60;100.00;100356.34;5096119;28;20449;-77
2021/08/27 03:20:07;;;;;;;0.87;0.60;;;;;;;13.59;100.00;100353.94;5096803;28;20910;-79
2021/08/27 03:22:38;;;;;;;0.73;0.53;;;;;;;13.63;100.00;100357.59;5098063;28;20837;-79
2021/08/27 03:25:09;;;;;;;0.57;0.47;;;;;;;13.58;100.00;100352.34;5098376;28;20461;-79
2021/08/27 03:27:40;;;;;;;0.40;0.40;;;;;;;13.59;100.00;100348.50;5098570;28;20926;-78
2021/08/27 03:30:13;;;;;;;0.50;0.33;;;;;;;13.59;100.00;100360.19;5098387;28;20945;-79
2021/08/27 03:32:42;;;;;;;0.70;0.60;;;;;;;13.54;100.00;100352.19;5098741;28;20464;-79
2021/08/27 03:35:09;;;;;;;0.80;0.57;;;;;;;13.54;100.00;100356.84;5099181;28;20926;-79
2021/08/27 03:37:35;;;;;;;4.47;0.50;;;;;;;13.53;100.00;100356.03;5099375;28;20440;-79
2021/08/27 03:40:03;;;;;;;1.23;0.80;;;;;;;13.55;100.00;100347.56;5101152;28;20452;-79
2021/08/27 03:42:30;;;;;;;0.60;0.53;;;;;;;13.55;100.00;100350.28;5100392;28;20495;-78
2021/08/27 03:45:00;;;;;;;0.97;0.60;;;;;;;13.56;100.00;100355.41;5100339;28;20484;-78
2021/08/27 03:47:28;;;;;;;0.60;0.50;;;;;;;13.60;100.00;100358.28;5100865;28;20839;-79
2021/08/27 03:49:55;;;;;;;1.00;0.50;;;;;;;13.60;100.00;100355.56;5101338;28;20452;-78
2021/08/27 03:52:23;;;;;;;2.20;0.60;;;;;;;13.59;100.00;100353.94;5102186;28;20467;-78
2021/08/27 03:54:50;;;;;;;0.73;0.70;;;;;;;13.59;100.00;100351.22;5100558;28;20443;-78
2021/08/27 03:57:17;;;;;;;1.00;0.50;;;;;;;13.54;100.00;100349.47;5101293;28;20432;-79
2021/08/27 03:59:44;;;;;;;0.70;0.57;;;;;;;13.55;100.00;100345.66;5101799;28;20457;-79
2021/08/27 04:02:12;;;;;;;0.97;0.87;;;;;;;13.57;100.00;100356.19;5102760;28;20498;-78
2021/08/27 04:04:41;;;;;;;0.90;0.73;;;;;;;13.57;100.00;100357.00;5101512;28;20483;-78
2021/08/27 04:07:07;;;;;;;1.30;0.80;;;;;;;13.56;100.00;100354.59;5102952;28;20448;-78
2021/08/27 04:09:36;;;;;;;0.80;0.53;;;;;;;13.59;100.00;100353.94;5104009;28;20440;-78
2021/08/27 04:12:04;;;;;;;0.93;0.77;;;;;;;13.55;100.00;100351.09;5099588;28;20448;-78
2021/08/27 04:14:31;;;;;;;0.70;0.53;;;;;;;13.55;100.00;100359.25;5095260;28;20803;-77
2021/08/27 04:16:59;;;;;;;1.10;0.40;;;;;;;13.52;100.00;100359.09;5095994;28;20445;-77
2021/08/27 04:19:26;;;;;;;3.80;0.40;;;;;;;13.54;100.00;100367.72;5096282;28;20505;-78
2021/08/27 04:21:53;;;;;;;0.80;0.70;;;;;;;13.57;100.00;100353.47;5095765;28;20440;-77
2021/08/27 04:24:20;;;;;;;0.77;0.40;;;;;;;13.56;100.00;100360.84;5096062;28;20469;-78
2021/08/27 04:26:46;;;;;;;0.60;0.40;;;;;;;13.57;100.00;100367.88;5096025;28;20449;-78
2021/08/27 04:29:14;;;;;;;0.60;0.43;;;;;;;13.53;100.00;100357.97;5096047;28;20453;-78
2021/08/27 04:31:41;;;;;;;0.80;0.57;;;;;;;13.48;100.00;100366.31;5095929;28;20896;-78
2021/08/27 04:34:08;;;;;;;0.60;0.50;;;;;;;13.52;100.00;100364.53;5095237;28;20472;-78
2021/08/27 04:36:35;;;;;;;0.73;0.73;;;;;;;13.54;100.00;100362.28;5095725;28;20445;-78
2021/08/27 04:39:03;;;;;;;1.07;0.63;;;;;;;13.51;100.00;100357.50;5095467;28;20448;-78
2021/08/27 04:41:29;;;;;;;0.60;0.50;;;;;;;13.53;100.00;100366.94;5095386;28;20440;-78
2021/08/27 04:43:56;;;;;;;0.63;0.47;;;;;;;13.58;100.00;100357.78;5094406;28;20491;-77
2021/08/27 04:46:22;;;;;;;0.50;0.40;;;;;;;13.61;100.00;100357.94;5095115;28;20428;-78
2021/08/27 04:48:49;;;;;;;0.67;0.67;;;;;;;13.65;100.00;100360.00;5095464;28;20445;-77
2021/08/27 04:51:15;;;;;;;0.80;0.70;;;;;;;13.67;100.00;100361.25;5095391;28;20436;-77
2021/08/27 04:53:42;;;;;;;0.50;0.40;;;;;;;13.69;100.00;100359.03;5094588;28;20460;-77
2021/08/27 04:56:09;;;;;;;0.80;0.40;;;;;;;13.66;100.00;100359.69;5095591;28;20447;-78
2021/08/27 04:58:36;;;;;;;0.70;0.43;;;;;;;13.60;100.00;100374.59;5095231;28;20448;-78
2021/08/27 05:01:03;;;;;;;1.53;0.50;;;;;;;13.61;100.00;100370.75;5095728;28;20428;-77
2021/08/27 05:03:29;;;;;;;0.60;0.57;;;;;;;13.62;100.00;100369.63;5094989;28;20463;-78
2021/08/27 05:05:56;;;;;;;0.40;0.30;;;;;;;13.63;100.00;100371.19;5095423;28;20459;-78
2021/08/27 05:08:22;;;;;;;0.90;0.60;;;;;;;13.69;100.00;100372.63;5095083;28;20443;-78
2021/08/27 05:10:49;;;;;;;0.60;0.47;;;;;;;13.71;100.00;100378.53;5094661;28;20440;-78
2021/08/27 05:13:16;;;;;;;0.80;0.50;;;;;;;13.68;100.00;100373.78;5093885;28;20981;-77
2021/08/27 05:15:43;;;;;;;0.60;0.50;;;;;;;13.70;100.00;100370.72;5094523;28;20448;-77
2021/08/27 05:18:09;;;;;;;2.60;0.70;;;;;;;13.71;100.00;100375.03;5095172;28;20473;-77
2021/08/27 05:20:36;;;;;;;0.60;0.43;;;;;;;13.66;100.00;100377.94;5094266;28;20452;-78
2021/08/27 05:23:02;;;;;;;0.70;0.53;;;;;;;13.59;100.00;100376.53;5093756;28;20477;-77
2021/08/27 05:25:29;;;;;;;1.17;0.70;;;;;;;13.58;100.00;100374.09;5094383;28;20485;-77
2021/08/27 05:27:55;;;;;;;0.50;0.30;;;;;;;13.60;100.00;100369.94;5093579;28;20440;-77
2021/08/27 05:30:23;;;;;;;0.50;0.40;;;;;;;13.59;100.00;100371.09;5094008;28;20440;-77
2021/08/27 05:32:50;;;;;;;1.53;0.87;;;;;;;13.59;100.00;100367.53;5094388;28;20468;-77
2021/08/27 05:35:17;;;;;;;1.27;0.80;;;;;;;13.57;100.00;100377.97;5092966;28;20444;-76
2021/08/27 05:37:44;;;;;;;0.90;0.70;;;;;;;13.59;100.00;100367.53;5093643;28;20444;-77
2021/08/27 05:40:11;;;;;;;0.70;0.60;;;;;;;13.68;100.00;100376.50;5093579;28;20464;-77
2021/08/27 05:42:39;;;;;;;1.10;0.63;;;;;;;13.71;100.00;100375.81;5094645;28;20464;-78
2021/08/27 05:45:07;;;;;;;0.50;0.40;;;;;;;13.76;100.00;100374.84;5095128;28;20487;-78
2021/08/27 05:47:35;;;;;;;0.87;0.70;;;;;;;13.83;100.00;100370.47;5095067;28;20470;-78
2021/08/27 05:50:02;;;;;;;0.93;0.83;;;;;;;13.93;100.00;100376.69;5094931;28;20448;-78
2021/08/27 05:52:28;;;;;;;0.87;0.73;;;;;;;13.96;100.00;100386.94;5094243;28;20957;-79
2021/08/27 05:54:55;;;;;;;0.70;0.53;;;;;;;13.88;100.00;100386.63;5094476;28;20440;-79
2021/08/27 05:57:21;;;;;;;1.10;0.90;;;;;;;13.87;100.00;100382.31;5095273;28;20444;-79
2021/08/27 05:59:48;;;;;;;0.70;0.70;;;;;;;13.85;100.00;100392.72;5094411;28;20448;-78
2021/08/27 06:02:14;;;;;;;0.50;0.43;;;;;;;13.83;100.00;100392.25;5093911;28;21013;-78
2021/08/27 06:04:42;;;;;;;0.80;0.80;;;;;;;13.85;100.00;100390.00;5092793;28;20475;-78
2021/08/27 06:07:09;;;;;;;1.27;0.73;;;;;;;13.89;100.00;100396.38;5094279;28;20456;-77
2021/08/27 06:09:35;;;;;;;0.90;0.70;;;;;;;13.96;100.00;100400.53;5094471;28;20452;-78
2021/08/27 06:12:02;;;;;;;0.87;0.80;;;;;;;13.93;100.00;100395.75;5094459;28;20440;-77
2021/08/27 06:14:28;;;;;;;0.60;0.60;;;;;;;13.85;100.00;100398.16;5093359;28;20934;-78
2021/08/27 06:16:55;;;;;;;0.60;0.60;;;;;;;13.85;100.00;100398.16;5094700;28;20436;-78
2021/08/27 06:19:21;;;;;;;1.30;1.27;;;;;;;13.91;100.00;100400.72;5094484;28;20440;-78
2021/08/27 06:21:50;;;;;;;0.80;0.70;;;;;;;13.95;100.00;100405.19;5094329;28;20451;-78
2021/08/27 06:24:17;;;;;;;0.63;0.63;;;;;;;14.01;100.00;100412.03;5093793;28;20476;-78
2021/08/27 06:26:43;;;;;;;0.83;0.77;;;;;;;14.08;100.00;100403.38;5095115;28;20432;-78
2021/08/27 06:29:10;;;;;;;0.70;0.70;;;;;;;14.11;100.00;100408.13;5094979;28;20441;-78
2021/08/27 06:31:36;;;;;;;0.80;0.73;;;;;;;14.20;100.00;100408.88;5094632;28;20823;-77
2021/08/27 06:34:03;;;;;;;1.30;1.00;;;;;;;14.25;100.00;100400.50;5092249;28;20973;-76
2021/08/27 06:36:29;;;;;;;0.63;0.63;;;;;;;14.31;100.00;100406.59;5093630;28;20441;-77
2021/08/27 06:38:57;;;;;;;0.70;0.63;;;;;;;14.34;100.00;100409.47;5094321;28;20441;-78
2021/08/27 06:41:24;;;;;;;1.33;0.83;;;;;;;14.35;100.00;100408.31;5095255;28;20523;-78
2021/08/27 06:43:50;;;;;;;1.00;0.80;;;;;;;14.38;100.00;100412.31;5094445;28;20973;-78
2021/08/27 06:46:19;;;;;;;1.10;0.83;;;;;;;14.42;100.00;100415.97;5096003;28;20447;-78
2021/08/27 06:48:46;;;;;;;1.53;0.80;;;;;;;14.39;100.00;100420.16;5096440;28;20437;-78
2021/08/27 06:51:13;;;;;;;0.70;0.43;;;;;;;14.36;100.00;100409.13;5096391;28;20448;-78
2021/08/27 06:53:41;;;;;;;1.10;0.80;;;;;;;14.36;100.00;100420.81;5096380;28;20460;-78
2021/08/27 06:56:08;;;;;;;24.23;1.60;;;;;;;14.36;100.00;100420.81;5096801;28;20436;-77
2021/08/27 06:58:35;;;;;;;1.00;0.80;;;;;;;14.47;100.00;100426.66;5097156;28;20441;-78
2021/08/27 07:01:02;;;;;;;1.73;0.80;;;;;;;14.55;100.00;100419.59;5097334;28;20451;-78
2021/08/27 07:03:29;;;;;;;0.60;0.50;;;;;;;14.56;100.00;100413.81;5096402;28;20471;-78
2021/08/27 07:05:56;;;;;;;1.13;0.83;;;;;;;14.61;100.00;100421.00;5096892;28;20487;-78
2021/08/27 07:08:23;;;;;;;1.00;0.93;;;;;;;14.64;100.00;100420.31;5097878;28;20471;-77
2021/08/27 07:10:50;;;;;;;3.43;0.97;;;;;;;14.81;100.00;100425.66;5098590;28;20453;-78
2021/08/27 07:13:17;;;;;;;0.80;0.80;;;;;;;15.01;100.00;100423.25;5097318;28;20457;-77
2021/08/27 07:15:44;;;;;;;0.90;0.80;;;;;;;15.13;100.00;100423.28;5098516;28;20467;-78
2021/08/27 07:18:12;;;;;;;0.90;0.80;;;;;;;15.20;100.00;100426.28;5098394;28;20447;-78
2021/08/27 07:20:38;;;;;;;1.67;1.20;;;;;;;15.32;100.00;100431.78;5097857;28;20468;-78
2021/08/27 07:23:05;;;;;;;0.70;0.70;;;;;;;15.47;100.00;100432.28;5096199;28;20479;-78
2021/08/27 07:25:31;;;;;;;1.60;0.80;;;;;;;15.58;100.00;100430.69;5097352;28;20488;-78
2021/08/27 07:27:58;;;;;;;1.03;0.93;;;;;;;15.65;100.00;100430.97;5097211;28;20490;-78
2021/08/27 07:30:26;;;;;;;2.70;0.67;;;;;;;15.69;100.00;100437.34;5097191;28;20820;-78
2021/08/27 07:32:52;;;;;;;1.93;0.53;;;;;;;15.72;100.00;100431.22;5096943;28;20456;-79
2021/08/27 07:35:19;;;;;;;1.00;0.90;;;;;;;15.57;100.00;100435.34;5097327;28;20441;-78
2021/08/27 07:37:46;;;;;;;2.30;1.03;;;;;;;15.43;100.00;100442.25;5097394;28;20444;-78
2021/08/27 07:40:15;;;;;;;0.77;0.53;;;;;;;15.42;100.00;100440.69;5096690;28;20440;-78
2021/08/27 07:42:42;;;;;;;1.53;0.67;;;;;;;15.42;100.00;100437.94;5096516;28;20471;-78
2021/08/27 07:45:09;;;;;;;0.73;0.60;;;;;;;15.46;100.00;100439.66;5096999;28;20477;-78
2021/08/27 07:47:37;;;;;;;0.60;0.60;;;;;;;15.52;100.00;100432.84;5097459;28;20437;-78
2021/08/27 07:50:04;;;;;;;0.70;0.60;;;;;;;15.51;100.00;100431.25;5096212;28;20440;-77
2021/08/27 07:52:31;;;;;;;1.27;0.60;;;;;;;15.27;100.00;100437.44;5099506;28;20471;-78
2021/08/27 07:54:57;;;;;;;3.77;0.73;;;;;;;15.19;100.00;100440.25;5099322;28;21175;-77
2021/08/27 07:57:24;;;;;;;1.10;0.77;;;;;;;15.30;100.00;100447.69;5096357;28;20451;-77
2021/08/27 07:59:50;;;;;;;8.03;0.83;;;;;;;15.44;100.00;100438.41;5096748;28;20444;-78
2021/08/27 08:02:17;;;;;;;3.13;0.73;;;;;;;15.57;100.00;100437.28;5096137;28;20480;-79
2021/08/27 08:04:45;;;;;;;0.90;0.60;;;;;;;15.69;100.00;100445.53;5095592;28;21047;-78
2021/08/27 08:07:11;;;;;;;0.40;0.40;;;;;;;15.73;100.00;100442.94;5096473;28;20444;-78
2021/08/27 08:09:38;;;;;;;0.70;0.57;;;;;;;15.62;100.00;100443.31;5097861;28;20451;-78
2021/08/27 08:12:05;;;;;;;0.60;0.60;;;;;;;15.47;100.00;100454.91;5097687;28;20447;-78
2021/08/27 08:14:32;;;;;;;1.33;0.70;;;;;;;15.52;100.00;100454.69;5096151;28;20580;-78
2021/08/27 08:16:58;;;;;;;1.00;0.60;;;;;;;15.37;100.00;100453.41;5096928;28;20440;-78
2021/08/27 08:19:25;;;;;;;0.70;0.47;;;;;;;15.39;100.00;100462.03;5096742;28;20428;-78
2021/08/27 08:21:52;;;;;;;1.47;0.80;;;;;;;15.36;100.00;100462.72;5098094;28;20447;-78
2021/08/27 08:24:19;;;;;;;0.60;0.50;;;;;;;15.41;100.00;100466.38;5095495;28;20436;-78
2021/08/27 08:26:45;;;;;;;1.03;0.70;;;;;;;15.50;100.00;100467.09;5099004;28;21067;-78
2021/08/27 08:29:12;;;;;;;0.63;0.63;;;;;;;15.62;100.00;100465.16;5096074;28;20444;-78
2021/08/27 08:31:38;;;;;;;1.10;0.80;;;;;;;15.73;100.00;100467.50;5096463;28;20444;-78
2021/08/27 08:34:05;;;;;;;0.50;0.50;;;;;;;15.83;100.00;100464.34;5097645;28;20456;-77
2021/08/27 08:36:32;;;;;;;0.90;0.60;;;;;;;15.86;100.00;100469.94;5099718;28;20440;-78
2021/08/27 08:38:59;;;;;;;1.07;0.97;;;;;;;15.89;100.00;100468.44;5099411;28;20786;-78
2021/08/27 08:41:26;;;;;;;1.70;0.60;;;;;;;15.97;100.00;100469.47;5097601;28;20435;-78
2021/08/27 08:43:52;;;;;;;0.73;0.50;;;;;;;16.06;100.00;100467.44;5099011;28;20476;-78
2021/08/27 08:46:22;;;;;;;0.57;0.53;;;;;;;16.13;100.00;100459.47;5097482;28;20511;-78
2021/08/27 08:48:51;;;;;;;0.50;0.40;;;;;;;16.15;100.00;100468.91;5097241;28;20814;-78
2021/08/27 08:51:18;;;;;;;0.50;0.33;;;;;;;16.18;100.00;100470.19;5098851;28;20934;-78
2021/08/27 08:53:49;;;;;;;1.27;0.60;;;;;;;16.28;100.00;100468.91;5099182;28;20452;-78
2021/08/27 08:56:18;;;;;;;0.50;0.40;;;;;;;16.41;100.00;100481.44;5101618;28;20840;-79
2021/08/27 08:58:44;;;;;;;0.50;0.40;;;;;;;16.49;100.00;100477.00;5101982;28;20448;-79
2021/08/27 09:01:16;;;;;;;0.57;0.50;;;;;;;16.60;100.00;100478.09;5104312;28;20523;-79
2021/08/27 09:03:43;;;;;;;0.83;0.53;;;;;;;16.62;100.00;100475.84;5100498;28;20457;-78
2021/08/27 09:06:09;;;;;;;0.50;0.40;;;;;;;16.61;100.00;100477.78;5101380;28;20491;-79
2021/08/27 09:08:39;;;;;;;0.60;0.60;;;;;;;16.64;100.00;100481.75;5101565;28;20516;-79
2021/08/27 09:11:15;;;;;;;0.47;0.40;;;;;;;16.54;100.00;100487.69;5104688;28;20870;-78
2021/08/27 09:13:44;;;;;;;0.60;0.50;;;;;;;16.34;100.00;100490.22;5101340;28;20457;-78
2021/08/27 09:16:11;;;;;;;0.50;0.40;;;;;;;16.28;100.00;100494.31;5104426;28;20456;-79
2021/08/27 09:18:39;;;;;;;0.63;0.47;;;;;;;16.32;100.00;100497.97;5102309;28;20425;-79
2021/08/27 09:21:28;;;;;;;1.07;0.50;;;;;;;16.38;100.00;100495.81;5102915;28;20440;-78
2021/08/27 09:24:19;;;;;;;0.40;0.33;;;;;;;16.40;100.00;100497.03;5104256;28;20516;-79
2021/08/27 09:26:48;;;;;;;0.60;0.40;;;;;;;16.49;100.00;100501.59;5107362;28;20469;-79
2021/08/27 09:29:39;;;;;;;0.40;0.40;;;;;;;16.60;100.00;100511.75;5103492;28;20436;-79
2021/08/27 09:32:19;;;;;;;0.40;0.37;;;;;;;16.63;100.00;100505.56;5095955;28;20478;-79
2021/08/27 09:34:47;;;;;;;0.50;0.40;;;;;;;16.57;100.00;100508.91;5095431;28;20511;-79
2021/08/27 09:37:13;;;;;;;0.60;0.40;;;;;;;16.60;100.00;100511.75;5096077;28;20433;-79
2021/08/27 09:39:40;;;;;;;0.70;0.40;;;;;;;16.55;100.00;100500.22;5096757;28;20524;-79
2021/08/27 09:42:06;;;;;;;2.83;0.50;;;;;;;16.67;100.00;100508.41;5095162;28;20440;-79
2021/08/27 09:44:33;;;;;;;1.03;0.90;;;;;;;16.76;100.00;100506.38;5094717;28;20972;-79
2021/08/27 09:47:08;;;;;;;0.40;0.30;;;;;;;16.84;100.00;100504.66;5095463;28;20476;-79
2021/08/27 09:49:36;;;;;;;0.60;0.40;;;;;;;16.75;97.33;100496.59;5095581;28;20435;-79
2021/08/27 09:52:04;;;;;;;0.80;0.50;;;;;;;16.96;98.11;100506.59;5095317;28;20965;-79
2021/08/27 09:54:33;;;;;;;5.37;0.60;;;;;;;17.00;96.00;100512.94;5095792;28;20440;-80
2021/08/27 09:57:01;;;;;;;0.80;0.50;;;;;;;17.08;96.13;100512.81;5096170;28;20448;-79
2021/08/27 09:59:35;;;;;;;0.50;0.40;;;;;;;17.27;94.98;100511.41;5095859;28;20452;-79
2021/08/27 10:02:02;;;;;;;0.90;0.47;;;;;;;17.38;93.59;100516.00;5097349;28;20428;-79
2021/08/27 10:04:30;;;;;;;0.50;0.50;;;;;;;17.24;90.75;100514.81;5095915;28;20501;-79
2021/08/27 10:06:57;;;;;;;0.50;0.40;;;;;;;17.34;91.18;100514.31;5097574;28;20567;-78
2021/08/27 10:09:24;;;;;;;0.50;0.40;;;;;;;17.40;89.26;100521.97;5100740;28;20440;-79
2021/08/27 10:11:57;;;;;;;0.50;0.40;;;;;;;17.46;89.06;100521.69;5100959;28;20444;-79
2021/08/27 10:14:24;;;;;;;1.00;0.50;;;;;;;17.48;91.33;100524.88;5098746;28;20425;-79
2021/08/27 10:16:51;;;;;;;5.80;0.70;;;;;;;17.51;92.12;100518.72;5097381;28;20464;-79
2021/08/27 10:19:18;;;;;;;0.60;0.57;;;;;;;17.63;91.59;100518.66;5095066;28;20519;-79
2021/08/27 10:21:50;;;;;;;0.60;0.50;;;;;;;17.79;91.02;100527.72;5095016;28;20932;-78
2021/08/27 10:24:17;;;;;;;0.50;0.37;;;;;;;17.96;91.02;100517.56;5082950;22;20502;-70
2021/08/27 10:26:43;;;;;;;0.50;0.40;;;;;;;18.03;90.26;100520.50;5075771;28;20485;-71
2021/08/27 10:29:11;;;;;;;1.90;0.53;;;;;;;18.11;87.58;100523.09;5075235;28;20811;-70
2021/08/27 10:31:44;;;;;;;0.50;0.50;;;;;;;18.04;83.70;100519.34;5075802;28;20449;-70
2021/08/27 10:34:11;;;;;;;0.50;0.33;;;;;;;17.90;84.79;100523.31;5075929;28;20448;-70
2021/08/27 10:36:50;;;;;;;1.07;0.40;;;;;;;17.79;85.70;100516.75;5075474;28;20464;-70
2021/08/27 10:39:37;;;;;;;1.10;0.60;;;;;;;17.84;86.83;100516.53;5076452;28;20430;-69
2021/08/27 10:42:04;;;;;;;0.50;0.33;;;;;;;17.92;87.31;100517.47;5076466;28;20467;-69
2021/08/27 10:44:48;;;;;;;2.30;0.50;;;;;;;17.94;87.11;100520.69;5075358;28;20437;-70
2021/08/27 10:47:15;;;;;;;0.60;0.40;;;;;;;18.00;85.88;100524.75;5075959;28;20488;-68
2021/08/27 10:49:54;;;;;;;0.50;0.30;;;;;;;18.24;86.63;100531.19;5076071;28;20441;-70
2021/08/27 10:52:32;;;;;;;0.50;0.40;;;;;;;18.49;85.59;100534.56;5076005;28;20425;-69
2021/08/27 10:55:20;;;;;;;0.50;0.30;;;;;;;18.60;84.98;100530.91;5075099;28;20804;-69
2021/08/27 10:57:56;;;;;;;1.00;0.60;;;;;;;18.47;80.26;100539.63;5072820;28;20485;-70
2021/08/27 11:00:40;;;;;;;1.63;0.70;;;;;;;18.53;81.80;100540.91;5075938;28;20533;-70
2021/08/27 11:03:09;;;;;;;0.60;0.50;;;;;;;18.48;83.78;100546.69;5075413;28;20491;-70
2021/08/27 11:05:38;;;;;;;0.80;0.60;;;;;;;18.23;82.56;100548.81;5074863;28;21033;-70
2021/08/27 11:08:08;;;;;;;0.70;0.50;;;;;;;18.28;82.27;100543.03;5075782;28;20461;-70
2021/08/27 11:10:37;;;;;;;0.67;0.43;;;;;;;18.45;82.64;100544.63;5076480;28;20422;-68
2021/08/27 11:13:10;;;;;;;0.60;0.50;;;;;;;18.52;81.96;100545.63;5075332;28;20438;-70
2021/08/27 11:15:38;;;;;;;0.67;0.67;;;;;;;18.55;80.95;100550.41;5075290;28;20456;-68
2021/08/27 11:18:13;;;;;;;0.50;0.40;;;;;;;18.60;81.34;100549.34;5075490;28;20461;-69
2021/08/27 11:20:39;;;;;;;0.43;0.30;;;;;;;18.41;77.21;100545.34;5075276;28;20489;-67
2021/08/27 11:23:08;;;;;;;0.60;0.50;;;;;;;18.75;79.37;100545.78;5075010;28;20457;-70
2021/08/27 11:25:34;;;;;;;0.90;0.60;;;;;;;18.99;80.55;100553.00;5074475;28;20453;-68